Time;durP1;ratioP1;P1;durP2;ratioP2;P2;SDS_P1;SDS_P2;PMS_P1;PMS_P2;Temp;Humidity;BMP_temperature;BMP_pressure;BME280_temperature;BME280_humidity;BME280_pressure;Samples;Min_cycle;Max_cycle;Signal;HPM_P1;HPM_P2
2023/08/14 00:02:16;;;;;;;10.10;8.43;;;;;;;14.50;100.00;101398.13;5047289;28;20040;-78
2023/08/14 00:04:41;;;;;;;12.40;8.10;;;;;;;14.46;100.00;101405.03;5047557;28;20021;-78
2023/08/14 00:07:08;;;;;;;12.25;8.80;;;;;;;14.46;100.00;101413.16;5049326;28;20044;-78
2023/08/14 00:09:34;;;;;;;9.77;8.20;;;;;;;14.43;100.00;101403.53;5043318;28;20033;-77
2023/08/14 00:12:01;;;;;;;9.15;8.18;;;;;;;14.42;100.00;101409.19;5045834;28;20506;-78
2023/08/14 00:14:26;;;;;;;9.98;8.30;;;;;;;14.38;100.00;101404.19;5054019;28;20025;-78
2023/08/14 00:16:51;;;;;;;11.38;8.38;;;;;;;14.35;100.00;101410.00;5047212;28;20028;-78
2023/08/14 00:19:17;;;;;;;11.68;8.43;;;;;;;14.33;100.00;101409.38;5047082;28;20370;-74
2023/08/14 00:21:42;;;;;;;11.80;9.07;;;;;;;14.33;100.00;101412.09;5047789;28;20029;-75
2023/08/14 00:24:08;;;;;;;11.85;8.38;;;;;;;14.32;100.00;101409.59;5046476;28;20499;-75
2023/08/14 00:26:33;;;;;;;10.02;8.00;;;;;;;14.29;100.00;101405.44;5046902;28;20044;-74
2023/08/14 00:28:59;;;;;;;11.63;7.70;;;;;;;14.25;100.00;101405.00;5047334;28;20421;-75
2023/08/14 00:31:24;;;;;;;8.23;7.45;;;;;;;14.24;100.00;101402.50;5040305;28;20025;-75
2023/08/14 00:33:51;;;;;;;10.68;8.85;;;;;;;14.21;100.00;101403.75;5041509;28;20597;-74
2023/08/14 00:36:19;;;;;;;11.82;9.63;;;;;;;14.21;100.00;101405.63;5040540;28;20038;-75
2023/08/14 00:38:44;;;;;;;11.90;9.02;;;;;;;14.18;100.00;101411.47;5052855;28;20556;-75
2023/08/14 00:41:10;;;;;;;12.45;9.02;;;;;;;14.14;100.00;101415.63;5047803;28;20032;-75
2023/08/14 00:43:35;;;;;;;11.90;8.85;;;;;;;14.11;100.00;101403.34;5047557;28;20017;-75
2023/08/14 00:46:03;;;;;;;12.38;9.30;;;;;;;14.07;100.00;101405.63;5044621;28;20029;-75
2023/08/14 00:48:29;;;;;;;10.85;9.15;;;;;;;14.03;100.00;101403.56;5024304;28;20021;-75
2023/08/14 00:50:54;;;;;;;10.40;9.00;;;;;;;13.99;100.00;101395.00;5039873;22;20103;-75
2023/08/14 00:53:20;;;;;;;11.90;9.43;;;;;;;13.94;100.00;101401.03;5018621;28;20060;-75
2023/08/14 00:55:45;;;;;;;10.48;8.82;;;;;;;13.90;100.00;101397.06;5028768;28;20033;-75
2023/08/14 00:58:13;;;;;;;10.13;8.80;;;;;;;13.89;100.00;101397.28;5027758;28;20037;-75
2023/08/14 01:00:41;;;;;;;12.88;9.02;;;;;;;13.86;100.00;101392.28;5027643;28;20081;-75
2023/08/14 01:03:06;;;;;;;11.77;9.23;;;;;;;13.83;100.00;101388.13;5040150;28;20079;-76
2023/08/14 01:05:32;;;;;;;10.38;9.35;;;;;;;13.78;100.00;101388.69;5031785;28;20049;-75
2023/08/14 01:07:57;;;;;;;11.88;9.63;;;;;;;13.74;100.00;101382.06;5028836;28;20468;-74
2023/08/14 01:10:23;;;;;;;9.40;8.48;;;;;;;13.74;100.00;101382.06;5030718;28;20485;-75
2023/08/14 01:13:09;;;;;;;9.85;8.30;;;;;;;13.71;100.00;101377.06;5032164;28;20053;-75
2023/08/14 01:15:43;;;;;;;9.98;8.98;;;;;;;13.67;100.00;101386.59;5029445;28;20038;-75
2023/08/14 01:18:09;;;;;;;9.95;8.48;;;;;;;13.66;100.00;101378.72;5015005;28;20101;-75
2023/08/14 01:20:35;;;;;;;10.27;8.73;;;;;;;13.64;100.00;101378.91;5032303;28;20112;-75
2023/08/14 01:23:17;;;;;;;11.75;8.57;;;;;;;13.61;100.00;101384.72;5029759;28;20362;-75
2023/08/14 01:25:42;;;;;;;9.25;8.10;;;;;;;13.59;100.00;101386.81;5038693;28;20125;-75
2023/08/14 01:28:08;;;;;;;9.80;8.80;;;;;;;13.56;100.00;101379.91;5015351;28;20029;-75
2023/08/14 01:30:33;;;;;;;11.32;8.63;;;;;;;13.58;100.00;101382.44;5031152;28;20038;-75
2023/08/14 01:32:59;;;;;;;10.77;8.02;;;;;;;13.60;100.00;101386.59;5031785;28;20030;-75
2023/08/14 01:35:25;;;;;;;11.18;8.38;;;;;;;13.56;100.00;101385.34;5037416;28;20056;-74
2023/08/14 01:38:32;;;;;;;10.93;8.90;;;;;;;13.52;100.00;101388.66;5012500;28;20630;-74
2023/08/14 01:41:10;;;;;;;10.95;8.57;;;;;;;13.45;100.00;101392.16;4969757;28;20054;-75
2023/08/14 01:43:40;;;;;;;10.80;8.27;;;;;;;13.44;100.00;101382.38;5038685;28;20101;-75
2023/08/14 01:46:06;;;;;;;9.48;7.30;;;;;;;13.41;100.00;101382.81;5032297;28;20079;-75
2023/08/14 01:48:32;;;;;;;11.20;8.52;;;;;;;13.35;100.00;101373.56;5015790;28;20069;-75
2023/08/14 01:50:57;;;;;;;9.82;8.20;;;;;;;13.34;100.00;101371.09;5030984;28;20428;-75
2023/08/14 01:53:23;;;;;;;10.85;8.82;;;;;;;13.32;100.00;101378.56;5063154;28;20033;-75
2023/08/14 01:55:48;;;;;;;9.75;8.63;;;;;;;13.28;100.00;101380.00;5052601;28;20365;-74
2023/08/14 01:58:14;;;;;;;11.10;8.90;;;;;;;13.28;100.00;101377.28;5069549;28;20028;-75
2023/08/14 02:00:40;;;;;;;11.00;8.43;;;;;;;13.25;100.00;101375.00;5067290;28;20108;-75
2023/08/14 02:03:06;;;;;;;11.02;9.13;;;;;;;13.25;100.00;101369.59;5071083;28;20025;-75
2023/08/14 02:05:31;;;;;;;10.02;9.00;;;;;;;13.23;100.00;101364.38;5075963;28;20020;-75
2023/08/14 02:07:56;;;;;;;10.68;8.77;;;;;;;13.20;100.00;101370.19;5073912;28;20046;-75
2023/08/14 02:10:22;;;;;;;11.23;8.80;;;;;;;13.16;100.00;101364.38;5072351;28;20024;-75
2023/08/14 02:12:47;;;;;;;11.50;8.68;;;;;;;13.13;100.00;101353.94;5074178;28;20027;-75
2023/08/14 02:15:13;;;;;;;11.50;9.02;;;;;;;13.11;100.00;101345.19;5069077;28;20032;-74
2023/08/14 02:17:38;;;;;;;11.23;9.15;;;;;;;13.09;100.00;101341.88;5074009;28;20132;-75
2023/08/14 02:20:04;;;;;;;12.90;8.60;;;;;;;13.08;100.00;101355.59;5070746;28;20036;-76
2023/08/14 02:22:30;;;;;;;12.45;9.35;;;;;;;13.07;100.00;101349.34;5069491;28;20028;-76
2023/08/14 02:24:55;;;;;;;10.82;8.60;;;;;;;13.07;100.00;101345.81;5072020;28;20024;-78
2023/08/14 02:27:23;;;;;;;9.63;8.00;;;;;;;13.04;100.00;101338.97;5072003;28;20051;-80
2023/08/14 02:29:51;;;;;;;10.18;8.95;;;;;;;13.02;100.00;101330.22;5067977;28;20112;-77
2023/08/14 02:32:17;;;;;;;10.88;9.00;;;;;;;12.99;100.00;101333.31;5044492;28;20025;-79
2023/08/14 02:34:45;;;;;;;11.82;8.63;;;;;;;12.94;100.00;101333.06;5070407;28;20040;-77
2023/08/14 02:37:11;;;;;;;12.10;8.93;;;;;;;12.89;100.00;101328.28;5070333;28;20473;-77
2023/08/14 02:39:37;;;;;;;13.18;9.02;;;;;;;12.84;100.00;101323.47;5051464;28;20028;-77
2023/08/14 02:42:03;;;;;;;12.75;9.05;;;;;;;12.86;100.00;101324.13;5070090;28;20423;-76
2023/08/14 02:44:28;;;;;;;15.63;9.45;;;;;;;12.88;100.00;101326.59;5069246;28;20021;-77
2023/08/14 02:46:54;;;;;;;15.32;9.60;;;;;;;12.87;100.00;101328.50;5071296;28;20571;-76
2023/08/14 02:49:19;;;;;;;12.07;8.25;;;;;;;12.87;100.00;101323.09;5052938;28;20379;-76
2023/08/14 02:51:45;;;;;;;11.25;9.15;;;;;;;12.85;100.00;101325.16;5066977;28;20484;-79
2023/08/14 02:54:10;;;;;;;15.60;9.82;;;;;;;12.87;100.00;101320.38;5067757;28;20032;-77
2023/08/14 02:56:36;;;;;;;11.57;9.23;;;;;;;12.86;100.00;101328.66;5068287;28;20044;-76
2023/08/14 02:59:01;;;;;;;16.70;10.18;;;;;;;12.86;100.00;101326.81;5069478;28;20471;-77
2023/08/14 03:01:27;;;;;;;11.32;9.82;;;;;;;12.83;100.00;101331.78;5068278;28;20523;-77
2023/08/14 03:03:52;;;;;;;13.07;8.93;;;;;;;12.78;100.00;101339.66;5069076;28;20020;-77
2023/08/14 03:06:17;;;;;;;12.00;9.38;;;;;;;12.75;100.00;101330.06;5075676;28;20041;-77
2023/08/14 03:08:43;;;;;;;12.63;9.90;;;;;;;12.71;100.00;101329.66;5068456;28;20048;-77
2023/08/14 03:11:08;;;;;;;10.88;9.18;;;;;;;12.68;100.00;101327.34;5070253;28;20031;-77
2023/08/14 03:13:34;;;;;;;11.52;9.57;;;;;;;12.66;100.00;101326.69;5069647;28;20048;-77
2023/08/14 03:16:01;;;;;;;12.60;9.68;;;;;;;12.65;100.00;101330.44;5072031;28;20505;-77
2023/08/14 03:18:26;;;;;;;11.80;9.13;;;;;;;12.62;100.00;101330.81;5075588;28;20024;-77
2023/08/14 03:20:52;;;;;;;12.35;9.30;;;;;;;12.61;100.00;101329.19;5084097;28;20027;-76
2023/08/14 03:23:18;;;;;;;13.43;9.02;;;;;;;12.58;100.00;101335.78;5080636;28;20376;-77
2023/08/14 03:25:43;;;;;;;11.80;9.02;;;;;;;12.56;100.00;101337.84;5072703;28;20620;-77
2023/08/14 03:28:08;;;;;;;10.60;9.15;;;;;;;12.55;100.00;101336.19;5070620;28;20361;-77
2023/08/14 03:30:36;;;;;;;12.90;10.40;;;;;;;12.55;100.00;101336.19;5068916;28;20033;-77
2023/08/14 03:33:02;;;;;;;11.00;9.68;;;;;;;12.54;100.00;101333.69;5069372;28;20032;-77
2023/08/14 03:35:27;;;;;;;13.25;9.18;;;;;;;12.53;100.00;101337.44;5069713;28;20036;-76
2023/08/14 03:37:53;;;;;;;10.20;8.45;;;;;;;12.50;100.00;101330.56;5068733;28;20500;-77
2023/08/14 03:40:18;;;;;;;11.68;8.95;;;;;;;12.44;100.00;101340.25;5073145;28;20031;-77
2023/08/14 03:42:44;;;;;;;11.05;8.68;;;;;;;12.41;100.00;101334.44;5068089;28;20029;-77
2023/08/14 03:45:09;;;;;;;9.80;8.80;;;;;;;12.38;100.00;101329.44;5050643;28;20033;-77
2023/08/14 03:47:37;;;;;;;11.80;8.95;;;;;;;12.38;100.00;101330.28;5068461;28;20032;-77
2023/08/14 03:50:04;;;;;;;13.38;9.98;;;;;;;12.37;100.00;101331.31;5068145;28;20111;-77
2023/08/14 03:52:31;;;;;;;10.80;8.77;;;;;;;12.37;100.00;101341.25;5049314;28;20461;-77
2023/08/14 03:54:56;;;;;;;12.50;9.38;;;;;;;12.39;100.00;101331.09;5051057;28;20488;-76
2023/08/14 03:57:22;;;;;;;13.82;10.15;;;;;;;12.37;100.00;101338.56;5067607;28;20033;-77
2023/08/14 03:59:47;;;;;;;12.85;9.73;;;;;;;12.36;100.00;101336.88;5068810;28;20021;-77
2023/08/14 04:02:13;;;;;;;10.60;8.82;;;;;;;12.35;100.00;101341.47;5068402;28;20029;-77
2023/08/14 04:04:38;;;;;;;9.30;8.30;;;;;;;12.35;100.00;101349.56;5069875;28;20132;-85
2023/08/14 04:07:04;;;;;;;9.88;8.57;;;;;;;12.34;100.00;101342.50;5075715;28;20060;-77
2023/08/14 04:09:32;;;;;;;14.65;10.65;;;;;;;12.40;100.00;101338.16;5061359;28;20055;-78
2023/08/14 04:11:58;;;;;;;14.00;11.68;;;;;;;12.49;100.00;101341.53;5064184;28;20043;-79
2023/08/14 04:14:23;;;;;;;13.88;10.43;;;;;;;12.44;100.00;101339.44;5070218;28;20037;-84
2023/08/14 04:16:49;;;;;;;16.27;11.50;;;;;;;12.44;100.00;101329.47;5067668;28;20020;-77
2023/08/14 04:19:15;;;;;;;13.13;10.02;;;;;;;12.43;100.00;101335.06;5056489;28;20029;-77
2023/08/14 04:21:41;;;;;;;12.82;9.73;;;;;;;12.38;100.00;101334.81;5071175;28;20387;-76
2023/08/14 04:24:07;;;;;;;13.85;10.27;;;;;;;12.40;100.00;101332.75;5081798;28;20028;-77
2023/08/14 04:26:33;;;;;;;10.45;9.00;;;;;;;12.38;100.00;101324.88;5069114;28;20024;-76
2023/08/14 04:28:58;;;;;;;13.43;9.80;;;;;;;12.40;100.00;101333.63;5067981;28;20546;-76
2023/08/14 04:31:24;;;;;;;13.60;10.02;;;;;;;12.42;100.00;101342.34;5069658;28;20103;-76
2023/08/14 04:33:49;;;;;;;15.43;10.02;;;;;;;12.43;100.00;101338.63;5068242;28;20025;-78
2023/08/14 04:36:15;;;;;;;12.70;9.38;;;;;;;12.45;100.00;101341.13;5068357;28;20064;-77
2023/08/14 04:38:40;;;;;;;10.13;9.10;;;;;;;12.48;100.00;101329.94;5067945;28;20025;-78
2023/08/14 04:41:05;;;;;;;12.88;9.38;;;;;;;12.52;100.00;101335.75;5069129;28;20354;-75
2023/08/14 04:43:31;;;;;;;11.57;9.57;;;;;;;12.53;100.00;101319.34;5069294;28;20063;-78
2023/08/14 04:46:08;;;;;;;9.45;8.45;;;;;;;12.57;100.00;101317.91;5072414;28;20029;-75
2023/08/14 04:48:33;;;;;;;14.70;9.07;;;;;;;12.59;100.00;101318.56;5075072;28;20375;-75
2023/08/14 04:50:59;;;;;;;11.65;9.85;;;;;;;12.66;100.00;101315.06;5074141;28;20024;-75
2023/08/14 04:53:24;;;;;;;12.45;9.80;;;;;;;12.73;100.00;101318.63;5055431;28;20376;-78
2023/08/14 04:55:51;;;;;;;12.55;9.38;;;;;;;12.79;100.00;101323.25;5074911;28;20491;-75
2023/08/14 04:58:16;;;;;;;12.75;9.10;;;;;;;12.84;100.00;101320.78;5073560;28;20044;-78
2023/08/14 05:00:42;;;;;;;12.80;9.18;;;;;;;12.94;100.00;101314.16;5074075;28;20087;-76
2023/08/14 05:03:07;;;;;;;11.02;9.88;;;;;;;13.01;100.00;101306.91;5074105;28;20410;-76
2023/08/14 05:05:32;;;;;;;12.23;9.40;;;;;;;13.06;100.00;101315.22;5074024;28;20055;-77
2023/08/14 05:07:58;;;;;;;12.23;9.63;;;;;;;13.14;100.00;101311.56;5072310;28;20476;-76
2023/08/14 05:10:23;;;;;;;14.85;10.60;;;;;;;13.22;100.00;101305.13;5073653;28;20074;-78
2023/08/14 05:12:49;;;;;;;12.10;10.27;;;;;;;13.29;100.00;101308.66;5073159;28;20043;-78
2023/08/14 05:15:14;;;;;;;11.77;10.02;;;;;;;13.37;100.00;101303.09;5072338;28;20036;-78
2023/08/14 05:17:39;;;;;;;13.15;10.18;;;;;;;13.45;100.00;101313.72;5073877;28;20117;-76
2023/08/14 05:20:06;;;;;;;13.80;10.30;;;;;;;13.57;100.00;101310.44;5073594;28;20024;-77
2023/08/14 05:22:31;;;;;;;17.40;11.00;;;;;;;13.66;100.00;101314.59;5072121;28;20587;-76
2023/08/14 05:24:56;;;;;;;11.48;10.23;;;;;;;13.77;100.00;101313.97;5073714;28;20021;-78
2023/08/14 05:27:22;;;;;;;14.20;10.27;;;;;;;13.85;100.00;101312.13;5073853;28;20036;-78
2023/08/14 05:29:47;;;;;;;10.32;9.18;;;;;;;13.99;100.00;101312.97;5071200;28;20039;-79
2023/08/14 05:32:13;;;;;;;11.05;9.20;;;;;;;14.11;100.00;101303.16;5073358;28;20036;-78
2023/08/14 05:34:38;;;;;;;13.82;9.25;;;;;;;14.25;100.00;101317.53;5073172;28;20028;-79
2023/08/14 05:37:03;;;;;;;13.02;9.68;;;;;;;14.40;100.00;101309.16;5053992;28;20081;-78
2023/08/14 05:39:29;;;;;;;12.20;9.20;;;;;;;14.58;100.00;101316.63;5072809;28;20036;-78
2023/08/14 05:41:54;;;;;;;9.88;8.50;;;;;;;14.74;100.00;101314.53;5073310;28;20082;-76
2023/08/14 05:44:20;;;;;;;10.13;8.30;;;;;;;14.97;100.00;101314.88;5071778;28;20555;-77
2023/08/14 05:46:45;;;;;;;12.38;8.65;;;;;;;15.22;100.00;101314.13;5073033;28;20054;-77
2023/08/14 05:49:10;;;;;;;10.45;8.65;;;;;;;15.49;100.00;101311.25;5081346;22;20477;-77
2023/08/14 05:51:36;;;;;;;13.07;8.27;;;;;;;15.86;100.00;101316.88;5091516;28;20024;-77
2023/08/14 05:54:01;;;;;;;10.27;8.00;;;;;;;16.06;100.00;101311.28;5064071;28;20036;-77
2023/08/14 05:56:27;;;;;;;11.70;8.15;;;;;;;16.26;100.00;101303.97;5070924;28;20230;-77
2023/08/14 05:58:57;;;;;;;9.75;7.82;;;;;;;16.59;100.00;101316.41;5072527;28;20032;-77
2023/08/14 06:01:23;;;;;;;8.27;7.18;;;;;;;16.87;100.00;101315.03;5073308;28;20446;-77
2023/08/14 06:03:49;;;;;;;10.50;7.43;;;;;;;17.09;99.09;101305.38;5074184;28;20036;-77
2023/08/14 06:08:39;;;;;;;10.85;7.40;;;;;;;17.39;97.45;101312.72;5037266;22;20507;-77
2023/08/14 06:11:05;;;;;;;13.20;7.30;;;;;;;17.56;96.40;101296.53;5032599;28;20041;-77
2023/08/14 06:13:31;;;;;;;11.13;7.28;;;;;;;17.53;94.84;101297.03;5032373;28;20442;-77
2023/08/14 06:15:57;;;;;;;12.40;7.70;;;;;;;17.63;94.61;101298.34;5030462;28;20040;-77
2023/08/14 06:18:22;;;;;;;9.07;6.82;;;;;;;17.64;94.13;101303.56;5032781;28;20022;-77
2023/08/14 06:20:50;;;;;;;12.90;7.82;;;;;;;17.83;94.14;101308.91;5031987;28;20029;-77
2023/08/14 06:23:15;;;;;;;10.38;7.15;;;;;;;17.95;94.61;101304.31;5029772;28;20115;-77
2023/08/14 06:25:40;;;;;;;9.70;6.80;;;;;;;18.07;93.48;101311.69;5031608;28;20101;-77
2023/08/14 06:28:06;;;;;;;10.10;7.05;;;;;;;18.25;91.54;101325.19;5031841;28;20029;-77
2023/08/14 06:30:32;;;;;;;11.65;7.25;;;;;;;18.20;92.60;101316.91;5032176;28;20029;-77
2023/08/14 06:32:57;;;;;;;8.20;6.30;;;;;;;18.38;91.45;101328.75;5032217;28;20029;-77
2023/08/14 06:35:22;;;;;;;9.65;6.30;;;;;;;18.57;89.10;101327.53;5031562;28;20107;-77
2023/08/14 06:37:51;;;;;;;10.23;6.00;;;;;;;18.76;87.25;101333.69;5032134;28;20032;-77
2023/08/14 06:40:16;;;;;;;8.18;6.03;;;;;;;18.80;86.74;101331.31;5030064;28;20068;-77
2023/08/14 06:42:41;;;;;;;7.70;6.45;;;;;;;18.87;86.54;101342.94;5031804;28;20026;-77
2023/08/14 06:45:07;;;;;;;11.63;6.07;;;;;;;18.76;87.79;101338.31;5031582;28;20043;-77
2023/08/14 06:47:33;;;;;;;7.75;6.07;;;;;;;18.76;88.09;101352.78;5023481;28;20033;-77
2023/08/14 06:49:58;;;;;;;10.60;6.60;;;;;;;18.59;88.96;101344.50;5031908;28;20029;-77
2023/08/14 06:52:24;;;;;;;10.65;6.45;;;;;;;18.58;87.49;101356.47;5030666;28;20037;-77
2023/08/14 06:54:49;;;;;;;10.00;6.80;;;;;;;18.46;88.36;101361.94;5031566;28;20018;-77
2023/08/14 06:57:17;;;;;;;10.38;7.13;;;;;;;18.31;89.52;101359.69;5031815;28;20373;-77
2023/08/14 06:59:43;;;;;;;10.43;7.15;;;;;;;18.27;90.38;101360.38;5023159;28;20031;-78
2023/08/14 07:02:08;;;;;;;9.90;7.07;;;;;;;18.25;91.25;101352.44;5032260;28;20025;-77
2023/08/14 07:04:34;;;;;;;9.18;7.00;;;;;;;18.19;92.89;101353.38;5031592;28;20037;-77
2023/08/14 07:07:02;;;;;;;9.20;7.28;;;;;;;18.21;92.43;101356.72;5029871;28;20386;-77
2023/08/14 07:09:28;;;;;;;8.57;6.95;;;;;;;18.29;91.39;101350.06;5021900;28;20095;-77
2023/08/14 07:11:53;;;;;;;10.70;7.63;;;;;;;18.26;92.14;101345.94;5031276;28;20481;-77
2023/08/14 07:14:24;;;;;;;10.98;7.07;;;;;;;18.23;92.65;101342.88;5152073;22;20455;-77
2023/08/14 07:16:53;;;;;;;10.45;7.43;;;;;;;18.33;92.44;101338.47;5067126;28;20086;-77
2023/08/14 07:19:21;;;;;;;9.85;7.30;;;;;;;18.38;92.50;101328.75;5059576;28;20392;-77
2023/08/14 07:21:47;;;;;;;10.18;7.57;;;;;;;18.36;92.10;101333.59;5061897;28;20028;-77
2023/08/14 07:24:12;;;;;;;11.25;7.43;;;;;;;18.61;90.42;101331.47;5059944;28;20036;-77
2023/08/14 07:26:39;;;;;;;9.32;6.57;;;;;;;18.84;88.98;101329.75;5058948;28;20048;-78
2023/08/14 07:29:04;;;;;;;11.55;7.80;;;;;;;19.00;89.48;101336.38;5040814;28;20079;-77
2023/08/14 07:31:29;;;;;;;11.05;6.88;;;;;;;19.70;86.90;101339.06;5060135;28;20029;-77
2023/08/14 07:33:55;;;;;;;8.75;6.43;;;;;;;21.12;80.65;101336.22;5054942;28;20379;-77
2023/08/14 07:36:20;;;;;;;11.60;6.25;;;;;;;23.10;70.67;101330.03;5055295;28;20535;-77
2023/08/14 07:38:46;;;;;;;11.18;6.85;;;;;;;23.87;65.66;101334.81;5061176;28;20037;-77
2023/08/14 07:41:11;;;;;;;8.60;5.90;;;;;;;24.68;61.42;101328.63;5059473;28;20033;-78
2023/08/14 07:43:39;;;;;;;10.13;5.55;;;;;;;25.69;59.26;101326.72;5050453;28;20029;-77
2023/08/14 07:46:04;;;;;;;9.80;6.57;;;;;;;25.80;57.20;101322.78;5067095;28;20542;-78
2023/08/14 07:48:30;;;;;;;9.60;5.22;;;;;;;27.44;53.34;101325.88;5060494;28;20033;-78
2023/08/14 07:50:55;;;;;;;7.20;5.22;;;;;;;27.38;51.28;101322.34;5060603;28;20056;-78
2023/08/14 07:53:20;;;;;;;7.22;4.15;;;;;;;28.20;49.19;101333.22;5050959;28;20390;-78
2023/08/14 07:55:48;;;;;;;9.20;4.60;;;;;;;28.74;46.54;101339.13;5057112;28;20059;-78
2023/08/14 07:58:15;;;;;;;7.57;4.22;;;;;;;28.89;46.57;101335.19;5059510;28;20498;-78
2023/08/14 08:00:41;;;;;;;6.82;3.78;;;;;;;29.75;43.71;101327.94;5057936;28;20074;-77
2023/08/14 08:03:07;;;;;;;8.15;4.15;;;;;;;30.76;42.12;101326.66;5061068;28;20051;-77
2023/08/14 08:05:32;;;;;;;10.07;4.28;;;;;;;30.51;42.29;101325.41;5039126;28;20037;-77
2023/08/14 08:07:57;;;;;;;5.47;4.03;;;;;;;30.07;43.39;101323.25;5068104;28;20025;-79
2023/08/14 08:10:23;;;;;;;6.00;3.65;;;;;;;30.97;39.55;101320.47;5057272;28;20037;-77
2023/08/14 08:12:48;;;;;;;7.25;3.30;;;;;;;31.69;38.70;101322.91;5059493;28;20027;-77
2023/08/14 08:15:13;;;;;;;7.50;3.50;;;;;;;31.61;37.81;101317.03;5066545;28;20372;-77
2023/08/14 08:17:39;;;;;;;8.50;3.97;;;;;;;31.33;38.88;101321.31;5062417;28;20029;-78
2023/08/14 08:20:06;;;;;;;6.93;3.40;;;;;;;30.08;41.53;101319.34;5061898;28;20381;-78
2023/08/14 08:22:31;;;;;;;5.57;3.13;;;;;;;30.45;40.43;101323.91;5065732;28;20306;-77
2023/08/14 08:24:57;;;;;;;6.93;3.33;;;;;;;30.74;39.15;101326.16;5065670;28;20078;-77
2023/08/14 08:27:22;;;;;;;5.57;3.55;;;;;;;29.52;42.49;101306.88;5065540;28;20038;-77
2023/08/14 08:29:47;;;;;;;7.57;3.75;;;;;;;29.62;42.05;101306.66;5066427;28;20025;-77
2023/08/14 08:32:13;;;;;;;7.63;3.42;;;;;;;29.37;42.36;101305.31;5054623;28;20029;-77
2023/08/14 08:34:38;;;;;;;7.53;3.30;;;;;;;29.74;42.09;101323.53;5058644;28;20016;-77
2023/08/14 08:37:04;;;;;;;6.63;2.83;;;;;;;31.60;37.41;101325.72;5068377;28;20051;-78
2023/08/14 08:39:29;;;;;;;5.20;2.80;;;;;;;32.14;36.15;101327.25;5060878;28;20472;-78
2023/08/14 08:41:56;;;;;;;7.03;3.00;;;;;;;32.65;35.21;101328.19;5056228;28;20017;-77
2023/08/14 08:44:32;;;;;;;6.32;2.92;;;;;;;32.49;34.77;101335.47;5048527;28;20063;-77
2023/08/14 08:47:04;;;;;;;7.38;2.78;;;;;;;33.07;34.18;101344.16;5065170;28;20434;-78
2023/08/14 08:49:29;;;;;;;5.97;2.90;;;;;;;33.15;33.94;101348.03;5054204;28;20099;-78
2023/08/14 08:51:55;;;;;;;6.00;2.50;;;;;;;32.55;34.61;101333.31;5060924;28;20032;-77
2023/08/14 08:54:20;;;;;;;7.25;2.80;;;;;;;32.39;34.84;101339.47;5058508;28;20040;-77
2023/08/14 08:56:46;;;;;;;6.68;2.60;;;;;;;32.39;34.88;101331.09;5072823;28;20080;-78
2023/08/14 08:59:12;;;;;;;4.80;2.78;;;;;;;32.88;34.77;101332.66;5028257;28;20040;-77
2023/08/14 09:01:41;;;;;;;7.13;2.90;;;;;;;32.68;34.50;101332.25;5068958;28;20082;-78
2023/08/14 09:04:06;;;;;;;7.43;2.90;;;;;;;33.45;32.86;101333.22;5059485;28;20234;-78
2023/08/14 09:06:32;;;;;;;5.75;2.58;;;;;;;33.31;33.20;101333.47;5064968;28;20048;-78
2023/08/14 09:08:58;;;;;;;4.88;2.33;;;;;;;33.06;33.58;101323.00;5041224;28;20361;-78
2023/08/14 09:11:24;;;;;;;5.60;2.50;;;;;;;33.58;32.36;101315.34;5062242;28;20020;-78
2023/08/14 09:13:49;;;;;;;5.00;2.33;;;;;;;34.20;32.00;101318.31;5033499;28;20048;-78
2023/08/14 09:16:15;;;;;;;6.40;2.60;;;;;;;33.49;33.53;101318.22;5072809;28;20044;-78
2023/08/14 09:18:44;;;;;;;7.75;2.60;;;;;;;34.26;31.68;101307.72;5055165;28;20021;-78
2023/08/14 09:21:10;;;;;;;5.72;1.98;;;;;;;33.94;32.21;101311.03;5038391;28;20115;-78
2023/08/14 09:23:38;;;;;;;5.72;2.30;;;;;;;33.05;33.08;101315.78;5062829;28;20096;-78
2023/08/14 09:26:03;;;;;;;5.68;2.17;;;;;;;32.70;33.37;101318.78;5061507;28;20376;-78
2023/08/14 09:28:28;;;;;;;5.78;2.20;;;;;;;33.51;32.43;101310.31;5026258;28;20021;-78
2023/08/14 09:31:05;;;;;;;4.28;2.25;;;;;;;34.46;30.33;101303.19;5064206;28;20028;-78
2023/08/14 09:33:30;;;;;;;6.90;2.47;;;;;;;33.78;31.17;101296.09;5056177;28;20036;-78
2023/08/14 09:35:55;;;;;;;5.47;2.33;;;;;;;34.07;31.44;101292.34;5019188;28;20075;-78
2023/08/14 09:38:22;;;;;;;8.02;2.40;;;;;;;33.53;32.34;101284.88;5033472;28;20419;-78
2023/08/14 09:40:56;;;;;;;5.07;2.45;;;;;;;33.38;32.42;101273.19;5060296;28;20033;-78
2023/08/14 09:43:21;;;;;;;7.20;2.67;;;;;;;31.77;35.52;101272.03;5061559;28;20060;-78
2023/08/14 09:45:47;;;;;;;5.53;2.50;;;;;;;33.40;33.13;101276.44;5059090;28;20035;-78
2023/08/14 09:48:12;;;;;;;4.90;2.30;;;;;;;34.05;31.54;101255.53;5064931;28;20044;-79
2023/08/14 09:50:38;;;;;;;4.88;2.20;;;;;;;34.92;29.36;101264.66;5048560;28;20078;-79
2023/08/14 09:53:05;;;;;;;7.38;2.65;;;;;;;35.15;29.78;101266.91;5064853;28;20033;-78
2023/08/14 09:55:33;;;;;;;5.80;2.28;;;;;;;34.79;30.15;101260.25;5071557;28;20485;-78
2023/08/14 09:57:58;;;;;;;6.32;2.50;;;;;;;34.86;29.64;101268.88;5041283;28;20036;-79
2023/08/14 10:00:30;;;;;;;5.13;2.28;;;;;;;33.67;30.56;101274.22;5062650;28;20483;-78
2023/08/14 10:02:55;;;;;;;6.72;2.70;;;;;;;34.07;30.39;101264.41;5066877;28;20025;-78
2023/08/14 10:05:21;;;;;;;5.55;2.40;;;;;;;33.79;30.85;101265.06;5015817;28;20026;-78
2023/08/14 10:07:48;;;;;;;6.25;2.58;;;;;;;34.04;31.99;101259.50;5046982;28;20059;-78
2023/08/14 10:10:13;;;;;;;4.97;2.30;;;;;;;34.38;30.21;101259.38;5046300;28;20055;-78
2023/08/14 10:13:15;;;;;;;4.95;2.25;;;;;;;34.56;29.42;101251.56;5036413;28;20479;-78
2023/08/14 10:15:43;;;;;;;4.03;2.05;;;;;;;34.84;29.40;101251.63;5015649;28;20390;-78
2023/08/14 10:18:18;;;;;;;6.68;2.20;;;;;;;35.77;27.79;101262.97;5065026;28;20016;-79
2023/08/14 10:20:44;;;;;;;4.95;1.98;;;;;;;35.27;28.16;101265.25;5026549;28;20045;-79
2023/08/14 10:23:09;;;;;;;4.57;2.10;;;;;;;34.43;29.73;101251.59;5061015;28;20017;-79
2023/08/14 10:25:38;;;;;;;5.53;2.15;;;;;;;34.56;29.32;101258.00;5042563;28;20032;-78
2023/08/14 10:28:05;;;;;;;5.50;2.22;;;;;;;34.73;29.31;101251.28;5065885;28;20415;-78
2023/08/14 10:30:30;;;;;;;7.05;2.28;;;;;;;34.10;29.78;101262.88;5060205;28;20178;-78
2023/08/14 10:32:56;;;;;;;5.22;1.88;;;;;;;34.05;28.96;101261.13;5031653;28;20028;-78
2023/08/14 10:35:23;;;;;;;5.32;2.35;;;;;;;33.04;31.20;101261.16;5049671;28;20375;-78
2023/08/14 10:37:48;;;;;;;4.70;1.90;;;;;;;33.01;31.99;101249.88;5055413;28;20036;-78
2023/08/14 10:40:23;;;;;;;3.83;1.88;;;;;;;34.52;28.72;101251.47;5057948;28;20029;-78
2023/08/14 10:42:58;;;;;;;6.07;2.13;;;;;;;35.05;27.33;101243.06;5053840;28;20523;-78
2023/08/14 10:45:28;;;;;;;4.22;1.80;;;;;;;34.78;27.49;101236.25;5063485;28;20063;-78
2023/08/14 10:47:58;;;;;;;3.28;1.60;;;;;;;35.13;27.08;101230.06;5057733;28;20078;-79
2023/08/14 10:50:24;;;;;;;4.63;1.98;;;;;;;35.77;26.69;101235.81;5053708;28;20032;-78
2023/08/14 10:52:54;;;;;;;4.63;1.92;;;;;;;35.89;26.12;101243.31;5062669;28;20032;-78
2023/08/14 10:55:24;;;;;;;4.78;1.80;;;;;;;34.91;27.40;101240.66;5057659;28;20021;-78
2023/08/14 10:57:49;;;;;;;5.07;1.77;;;;;;;35.47;26.52;101230.66;5061678;28;20067;-79
2023/08/14 11:00:24;;;;;;;4.25;2.13;;;;;;;35.56;26.93;101232.44;5057539;28;20396;-78
2023/08/14 11:03:06;;;;;;;5.00;2.08;;;;;;;35.23;27.33;101231.53;5051995;28;20353;-78
2023/08/14 11:05:38;;;;;;;4.85;1.90;;;;;;;34.23;28.37;101217.03;5058484;28;20032;-78
2023/08/14 11:08:05;;;;;;;3.75;2.10;;;;;;;33.36;29.15;101216.91;5044909;28;20020;-78
2023/08/14 11:10:31;;;;;;;4.47;2.00;;;;;;;34.53;28.75;101218.72;5060365;28;20067;-78
2023/08/14 11:12:57;;;;;;;5.15;2.20;;;;;;;34.63;28.24;101212.66;5043059;28;20029;-79
2023/08/14 11:15:24;;;;;;;5.78;1.98;;;;;;;35.64;26.33;101218.28;5039994;28;20041;-78
2023/08/14 11:17:49;;;;;;;4.43;2.10;;;;;;;35.31;26.96;101202.59;5058258;28;20159;-78